createdAt,value
2018-12-01T00:00:22.154Z,32.55
2018-12-01T00:02:52.118Z,34.08
2018-12-01T00:05:23.147Z,37.95
2018-12-01T00:07:53.157Z,37.78
2018-12-01T00:10:28.066Z,36.75
2018-12-01T00:12:57.880Z,34.95
2018-12-01T00:15:29.924Z,38.02
2018-12-01T00:18:00.812Z,36.40
2018-12-01T00:20:37.833Z,37.00
2018-12-01T00:23:07.879Z,35.78
2018-12-01T00:25:41.277Z,36.30
2018-12-01T00:28:11.197Z,38.88
2018-12-01T00:30:41.017Z,35.70
2018-12-01T00:33:11.861Z,37.88
2018-12-01T00:35:41.709Z,36.88
2018-12-01T00:38:11.525Z,39.13
2018-12-01T00:40:41.341Z,35.68
2018-12-01T00:43:12.142Z,36.80
2018-12-01T00:45:47.805Z,37.50
2018-12-01T00:48:18.661Z,36.35
2018-12-01T00:50:49.529Z,36.45
2018-12-01T00:53:20.359Z,40.15
2018-12-01T00:55:52.081Z,37.48
2018-12-01T00:58:21.975Z,36.05
2018-12-01T01:00:55.365Z,40.45
2018-12-01T01:03:26.285Z,42.30
2018-12-01T01:05:56.312Z,41.65
2018-12-01T01:08:28.145Z,37.88
2018-12-01T01:10:59.210Z,35.95
2018-12-01T01:13:29.010Z,41.10
2018-12-01T01:16:01.789Z,41.83
2018-12-01T01:18:36.593Z,41.28
2018-12-01T01:21:06.597Z,38.55
2018-12-01T01:23:37.448Z,42.05
2018-12-01T01:26:08.329Z,41.00
2018-12-01T01:28:40.094Z,40.73
2018-12-01T01:31:10.025Z,39.38
2018-12-01T01:33:40.861Z,39.15
2018-12-01T01:36:12.065Z,39.38
2018-12-01T01:38:41.941Z,41.37
2018-12-01T01:41:12.197Z,41.85
2018-12-01T01:43:42.098Z,41.95
2018-12-01T01:46:11.897Z,42.62
2018-12-01T01:48:42.754Z,40.90
2018-12-01T01:51:13.606Z,37.95
2018-12-01T01:53:48.829Z,40.35
2018-12-01T01:56:24.069Z,42.62
2018-12-01T01:58:57.817Z,44.53
2018-12-01T02:01:27.614Z,41.73
2018-12-01T02:03:57.490Z,40.15
2018-12-01T02:06:27.420Z,43.20
2018-12-01T02:08:57.220Z,42.65
2018-12-01T02:11:27.151Z,39.70
2018-12-01T02:13:57.961Z,41.73
2018-12-01T02:16:28.798Z,39.58
2018-12-01T02:18:58.688Z,40.75
2018-12-01T02:21:28.575Z,41.18
2018-12-01T02:23:59.458Z,39.65
2018-12-01T02:26:29.418Z,39.13
2018-12-01T02:28:59.278Z,35.48
2018-12-01T02:31:30.114Z,36.25
2018-12-01T02:34:00.962Z,38.65
2018-12-01T02:36:31.855Z,41.30
2018-12-01T02:39:02.867Z,47.58
2018-12-01T02:41:32.677Z,38.75
2018-12-01T02:44:19.430Z,43.08
2018-12-01T02:47:06.554Z,40.95
2018-12-01T02:49:37.634Z,38.38
2018-12-01T02:52:11.838Z,34.58
2018-12-01T02:54:41.734Z,38.50
2018-12-01T02:57:11.542Z,40.17
2018-12-01T02:59:42.375Z,39.50
2018-12-01T03:02:12.186Z,42.70
2018-12-01T03:04:43.094Z,38.65
2018-12-01T03:07:12.918Z,36.00
2018-12-01T03:09:43.330Z,38.42
2018-12-01T03:12:13.286Z,39.73
2018-12-01T03:14:43.246Z,38.58
2018-12-01T03:17:15.206Z,44.45
2018-12-01T03:19:47.030Z,36.98
2018-12-01T03:22:22.688Z,36.65
2018-12-01T03:24:53.511Z,36.88
2018-12-01T03:27:24.338Z,40.63
2018-12-01T03:29:55.151Z,43.45
2018-12-01T03:32:26.011Z,41.77
2018-12-01T03:34:55.946Z,42.83
2018-12-01T03:37:29.222Z,40.30
2018-12-01T03:39:59.131Z,38.95
2018-12-01T03:42:29.982Z,40.50
2018-12-01T03:44:59.924Z,36.70
2018-12-01T03:47:29.814Z,34.70
2018-12-01T03:50:01.684Z,43.35
2018-12-01T03:52:35.238Z,35.80
2018-12-01T03:55:05.862Z,38.70
2018-12-01T03:57:50.286Z,39.33
2018-12-01T04:00:24.283Z,39.73
2018-12-01T04:02:57.222Z,38.42
2018-12-01T04:05:32.547Z,36.80
2018-12-01T04:08:02.444Z,38.53
2018-12-01T04:10:32.322Z,39.75
2018-12-01T04:13:02.287Z,36.00
2018-12-01T04:15:37.571Z,42.67
2018-12-01T04:18:07.482Z,36.90
2018-12-01T04:20:37.377Z,34.67
2018-12-01T04:23:07.326Z,36.60
2018-12-01T04:25:38.218Z,39.30
2018-12-01T04:28:10.158Z,42.00
2018-12-01T04:30:44.634Z,43.78
2018-12-01T04:33:14.514Z,39.15
2018-12-01T04:35:45.398Z,42.53
2018-12-01T04:38:15.190Z,41.73
2018-12-01T04:40:45.132Z,35.40
2018-12-01T04:43:16.942Z,38.73
2018-12-01T04:45:47.743Z,35.80
2018-12-01T04:48:18.630Z,39.65
2018-12-01T04:50:48.662Z,41.10
2018-12-01T04:53:21.742Z,41.65
2018-12-01T04:55:51.669Z,43.92
2018-12-01T04:58:21.566Z,41.02
2018-12-01T05:00:51.642Z,35.52
2018-12-01T05:03:23.513Z,35.38
2018-12-01T05:05:58.090Z,43.38
2018-12-01T05:08:28.998Z,41.28
2018-12-01T05:10:58.953Z,38.80
2018-12-01T05:13:28.830Z,31.20
2018-12-01T05:16:02.008Z,33.88
2018-12-01T05:18:31.826Z,37.03
2018-12-01T05:21:01.791Z,36.53
2018-12-01T05:23:33.634Z,35.83
2018-12-01T05:26:10.182Z,32.40
2018-12-01T05:28:40.946Z,31.33
2018-12-01T05:31:10.771Z,32.08
2018-12-01T05:33:40.646Z,34.60
2018-12-01T05:36:12.311Z,32.70
2018-12-01T05:38:43.218Z,32.45
2018-12-01T05:41:13.009Z,31.52
2018-12-01T05:43:42.818Z,32.35
2018-12-01T05:46:16.250Z,31.95
2018-12-01T05:48:47.098Z,35.55
2018-12-01T05:51:18.186Z,32.40
2018-12-01T05:53:48.446Z,32.88
2018-12-01T05:56:18.474Z,31.50
2018-12-01T05:58:51.614Z,34.58
2018-12-01T06:01:21.758Z,32.65
2018-12-01T06:03:57.229Z,33.60
2018-12-01T06:06:33.035Z,33.35
2018-12-01T06:09:08.825Z,32.78
2018-12-01T06:11:40.646Z,32.25
2018-12-01T06:14:10.458Z,30.30
2018-12-01T06:16:40.296Z,33.85
2018-12-01T06:19:11.147Z,33.00
2018-12-01T06:21:41.026Z,36.38
2018-12-01T06:24:10.826Z,33.15
2018-12-01T06:26:48.862Z,33.83
2018-12-01T06:29:18.790Z,33.28
2018-12-01T06:31:48.662Z,29.20
2018-12-01T06:34:18.426Z,34.08
2018-12-01T06:36:48.295Z,33.02
2018-12-01T06:39:18.090Z,33.25
2018-12-01T06:41:53.522Z,32.30
2018-12-01T06:44:23.326Z,33.60
2018-12-01T06:46:56.830Z,35.13
2018-12-01T06:49:26.667Z,35.92
2018-12-01T06:51:57.526Z,36.60
2018-12-01T06:54:27.407Z,34.53
2018-12-01T06:57:00.871Z,36.28
2018-12-01T06:59:31.875Z,35.03
2018-12-01T07:02:06.086Z,36.35
2018-12-01T07:04:47.876Z,32.95
2018-12-01T07:07:17.801Z,33.00
2018-12-01T07:09:50.987Z,34.85
2018-12-01T07:12:20.875Z,35.92
2018-12-01T07:14:51.719Z,32.73
2018-12-01T07:17:22.533Z,37.50
2018-12-01T07:19:52.322Z,37.33
2018-12-01T07:22:22.130Z,35.43
2018-12-01T07:24:51.979Z,38.13
2018-12-01T07:27:26.755Z,36.65
2018-12-01T07:29:58.184Z,35.92
2018-12-01T07:32:26.590Z,37.70
2018-12-01T07:34:57.466Z,34.40
2018-12-01T07:37:27.318Z,36.90
2018-12-01T07:39:59.175Z,35.65
2018-12-01T07:42:29.079Z,33.08
2018-12-01T07:44:59.892Z,36.05
2018-12-01T07:47:30.695Z,33.78
2018-12-01T07:50:00.515Z,35.65
2018-12-01T07:52:30.299Z,34.48
2018-12-01T07:55:00.131Z,33.65
2018-12-01T07:57:33.001Z,35.20
2018-12-01T08:00:02.789Z,35.43
2018-12-01T08:02:35.803Z,32.60
2018-12-01T08:05:06.207Z,30.80
2018-12-01T08:07:38.099Z,32.67
2018-12-01T08:10:11.996Z,32.75
2018-12-01T08:12:55.219Z,35.20
2018-12-01T08:15:28.232Z,32.35
2018-12-01T08:17:59.076Z,32.98
2018-12-01T08:20:29.940Z,34.23
2018-12-01T08:23:00.772Z,34.23
2018-12-01T08:25:34.344Z,32.67
2018-12-01T08:28:10.328Z,33.15
2018-12-01T08:30:42.120Z,32.55
2018-12-01T08:33:12.236Z,31.42
2018-12-01T08:35:52.825Z,31.23
2018-12-01T08:38:23.596Z,31.45
2018-12-01T08:40:59.383Z,32.05
2018-12-01T08:43:33.824Z,31.17
2018-12-01T08:46:03.704Z,31.40
2018-12-01T08:48:38.048Z,33.00
2018-12-01T08:51:10.114Z,30.35
2018-12-01T08:53:40.044Z,29.63
2018-12-01T08:56:09.879Z,28.47
2018-12-01T08:58:39.927Z,29.90
2018-12-01T09:01:09.757Z,29.95
2018-12-01T09:03:40.617Z,28.60
2018-12-01T09:06:10.423Z,29.90
2018-12-01T09:08:43.632Z,29.12
2018-12-01T09:11:14.616Z,29.02
2018-12-01T09:13:46.452Z,27.80
2018-12-01T09:16:16.912Z,27.90
2018-12-01T09:18:50.420Z,28.35
2018-12-01T09:21:23.644Z,30.08
2018-12-01T09:23:56.516Z,28.38
2018-12-01T09:26:33.996Z,28.60
2018-12-01T09:29:06.048Z,29.10
2018-12-01T09:31:37.852Z,27.93
2018-12-01T09:34:09.593Z,25.77
2018-12-01T09:36:41.531Z,26.00
2018-12-01T09:39:11.308Z,25.32
2018-12-01T09:41:41.151Z,23.67
2018-12-01T09:44:10.984Z,23.45
2018-12-01T09:46:42.804Z,24.23
2018-12-01T09:49:12.704Z,24.77
2018-12-01T09:51:42.610Z,23.75
2018-12-01T09:54:12.379Z,25.10
2018-12-01T09:56:52.360Z,22.32
2018-12-01T09:59:25.732Z,22.35
2018-12-01T10:01:56.516Z,21.27
2018-12-01T10:04:26.332Z,20.27
2018-12-01T10:06:56.144Z,18.27
2018-12-01T10:09:27.937Z,20.12
2018-12-01T10:11:57.816Z,21.30
2018-12-01T10:14:30.792Z,18.55
2018-12-01T10:17:00.668Z,19.95
2018-12-01T10:19:36.384Z,18.57
2018-12-01T10:22:06.292Z,16.85
2018-12-01T10:24:41.912Z,17.75
2018-12-01T10:27:11.849Z,17.40
2018-12-01T10:29:42.768Z,15.20
2018-12-01T10:32:12.588Z,17.55
2018-12-01T10:34:47.000Z,17.03
2018-12-01T10:37:16.924Z,15.50
2018-12-01T10:39:46.753Z,16.00
2018-12-01T10:42:24.032Z,15.77
2018-12-01T10:44:57.845Z,14.43
2018-12-01T10:47:29.576Z,15.70
2018-12-01T10:49:59.368Z,14.90
2018-12-01T10:52:30.162Z,15.73
2018-12-01T10:55:03.020Z,15.00
2018-12-01T10:57:36.096Z,15.70
2018-12-01T11:00:14.604Z,15.18
2018-12-01T11:02:56.356Z,14.10
2018-12-01T11:05:28.368Z,14.58
2018-12-01T11:07:59.218Z,13.07
2018-12-01T11:10:30.097Z,12.03
2018-12-01T11:12:59.919Z,13.87
2018-12-01T11:15:32.625Z,13.50
2018-12-01T11:18:05.932Z,11.60
2018-12-01T11:20:38.068Z,10.20
2018-12-01T11:23:08.192Z,10.83
2018-12-01T11:25:40.019Z,9.23
2018-12-01T11:28:09.803Z,8.07
2018-12-01T11:30:42.895Z,8.90
2018-12-01T11:33:14.719Z,8.80
2018-12-01T11:35:44.663Z,7.23
2018-12-01T11:38:16.491Z,6.00
2018-12-01T11:40:47.311Z,6.00
2018-12-01T11:43:18.150Z,5.73
2018-12-01T11:45:48.953Z,5.37
2018-12-01T11:48:22.107Z,5.67
2018-12-01T11:50:53.168Z,5.73
2018-12-01T11:53:24.055Z,5.67
2018-12-01T11:56:01.808Z,4.00
2018-12-01T11:58:31.612Z,4.27
2018-12-01T12:01:06.627Z,4.60
2018-12-01T12:03:40.216Z,3.97
2018-12-01T12:06:11.148Z,3.77
2018-12-01T12:08:41.072Z,4.10
2018-12-01T12:11:10.852Z,4.40
2018-12-01T12:13:40.728Z,4.43
2018-12-01T12:16:10.560Z,7.80
2018-12-01T12:18:40.392Z,5.50
2018-12-01T12:21:11.192Z,4.07
2018-12-01T12:23:41.112Z,4.30
2018-12-01T12:26:11.895Z,3.67
2018-12-01T12:28:41.800Z,4.27
2018-12-01T12:31:12.612Z,4.60
2018-12-01T12:33:42.467Z,3.90
2018-12-01T12:36:12.474Z,4.03
2018-12-01T12:38:42.403Z,4.47
2018-12-01T12:41:12.292Z,3.30
2018-12-01T12:43:43.151Z,3.43
2018-12-01T12:46:13.075Z,3.50
2018-12-01T12:48:44.088Z,5.10
2018-12-01T12:51:14.004Z,3.80
2018-12-01T12:53:44.248Z,3.73
2018-12-01T12:56:14.100Z,4.47
2018-12-01T12:58:43.924Z,4.53
2018-12-01T13:01:13.872Z,4.90
2018-12-01T13:03:43.772Z,7.20
2018-12-01T13:06:13.800Z,12.37
2018-12-01T13:08:43.712Z,14.97
2018-12-01T13:11:13.528Z,12.83
2018-12-01T13:13:43.440Z,7.77
2018-12-01T13:16:13.339Z,6.07
2018-12-01T13:18:43.268Z,4.73
2018-12-01T13:21:13.184Z,4.80
2018-12-01T13:23:43.015Z,5.10
2018-12-01T13:26:12.896Z,5.50
2018-12-01T13:28:42.808Z,6.50
2018-12-01T13:31:12.724Z,6.93
2018-12-01T13:33:42.675Z,5.03
2018-12-01T13:36:12.476Z,6.97
2018-12-01T13:38:42.372Z,6.53
2018-12-01T13:41:13.201Z,7.40
2018-12-01T13:43:43.100Z,9.33
2018-12-01T13:46:12.918Z,8.07
2018-12-01T13:48:42.716Z,8.90
2018-12-01T13:51:12.625Z,8.43
2018-12-01T13:53:42.492Z,8.65
2018-12-01T13:56:12.424Z,7.87
2018-12-01T13:58:42.236Z,8.73
2018-12-01T14:01:12.104Z,8.87
2018-12-01T14:03:42.024Z,7.35
2018-12-01T14:06:12.056Z,10.23
2018-12-01T14:08:41.968Z,10.03
2018-12-01T14:11:12.008Z,8.65
2018-12-01T14:13:41.884Z,9.03
2018-12-01T14:16:12.700Z,9.23
2018-12-01T14:18:43.608Z,8.58
2018-12-01T14:21:14.477Z,9.20
2018-12-01T14:23:44.301Z,9.70
2018-12-01T14:26:14.212Z,9.40
2018-12-01T14:28:44.149Z,9.58
2018-12-01T14:31:13.944Z,9.53
2018-12-01T14:33:45.795Z,9.35
2018-12-01T14:36:15.692Z,9.43
2018-12-01T14:38:50.144Z,9.68
2018-12-01T14:41:20.040Z,9.93
2018-12-01T14:43:49.980Z,9.48
2018-12-01T14:46:19.872Z,10.60
2018-12-01T14:48:49.768Z,10.05
2018-12-01T14:51:20.644Z,10.23
2018-12-01T14:53:50.524Z,11.38
2018-12-01T14:56:20.328Z,10.58
2018-12-01T14:58:51.175Z,10.10
2018-12-01T15:01:21.012Z,10.40
2018-12-01T15:03:50.808Z,10.98
2018-12-01T15:06:20.720Z,10.95
2018-12-01T15:08:50.515Z,10.23
2018-12-01T15:11:20.345Z,11.08
2018-12-01T15:13:50.356Z,10.68
2018-12-01T15:16:22.240Z,11.30
2018-12-01T15:18:52.148Z,11.45
2018-12-01T15:21:22.080Z,11.10
2018-12-01T15:23:52.995Z,11.93
2018-12-01T15:26:23.859Z,10.40
2018-12-01T15:29:00.640Z,12.75
2018-12-01T15:31:30.483Z,12.07
2018-12-01T15:34:00.312Z,11.95
2018-12-01T15:36:32.255Z,11.35
2018-12-01T15:39:03.135Z,11.28
2018-12-01T15:41:33.959Z,11.50
2018-12-01T15:44:03.860Z,11.33
2018-12-01T15:46:34.799Z,11.55
2018-12-01T15:49:05.812Z,11.57
2018-12-01T15:51:35.667Z,12.00
2018-12-01T15:54:06.043Z,12.80
2018-12-01T15:56:35.849Z,13.78
2018-12-01T15:59:06.887Z,15.25
2018-12-01T16:01:36.667Z,14.70
2018-12-01T16:04:06.967Z,15.28
2018-12-01T16:06:36.859Z,16.87
2018-12-01T16:09:09.614Z,16.65
2018-12-01T16:11:39.481Z,14.75
2018-12-01T16:14:10.635Z,16.62
2018-12-01T16:16:40.535Z,15.63
2018-12-01T16:19:10.468Z,17.00
2018-12-01T16:21:41.391Z,17.27
2018-12-01T16:24:11.267Z,16.15
2018-12-01T16:26:41.115Z,18.52
2018-12-01T16:29:11.027Z,18.05
2018-12-01T16:31:40.947Z,18.62
2018-12-01T16:34:10.991Z,18.07
2018-12-01T16:36:41.228Z,19.48
2018-12-01T16:39:11.596Z,21.35
2018-12-01T16:41:41.838Z,25.45
2018-12-01T16:44:12.672Z,19.95
2018-12-01T16:46:42.588Z,20.80
2018-12-01T16:49:12.511Z,20.68
2018-12-01T16:51:43.435Z,20.45
2018-12-01T16:54:13.279Z,18.50
2018-12-01T16:56:45.104Z,19.52
2018-12-01T16:59:15.927Z,20.32
2018-12-01T17:01:45.980Z,20.50
2018-12-01T17:04:15.851Z,21.57
2018-12-01T17:06:46.651Z,23.35
2018-12-01T17:09:16.503Z,21.97
2018-12-01T17:11:46.446Z,22.70
2018-12-01T17:14:16.300Z,22.87
2018-12-01T17:16:46.128Z,23.47
2018-12-01T17:19:15.936Z,20.57
2018-12-01T17:21:47.825Z,22.13
2018-12-01T17:24:17.729Z,21.27
2018-12-01T17:26:47.628Z,22.00
2018-12-01T17:29:17.441Z,20.02
2018-12-01T17:31:47.268Z,20.40
2018-12-01T17:34:17.203Z,23.38
2018-12-01T17:36:47.091Z,20.82
2018-12-01T17:39:41.664Z,22.15
2018-12-01T17:42:16.104Z,20.02
2018-12-01T17:44:47.902Z,21.00
2018-12-01T17:47:18.688Z,21.37
2018-12-01T17:49:48.468Z,21.05
2018-12-01T17:52:19.245Z,23.77
2018-12-01T17:54:49.192Z,22.55
2018-12-01T17:57:18.956Z,21.60
2018-12-01T17:59:48.734Z,22.55
2018-12-01T18:02:19.604Z,22.13
2018-12-01T18:05:00.708Z,22.22
2018-12-01T18:07:31.729Z,21.87
2018-12-01T18:10:01.674Z,19.80
2018-12-01T18:12:33.464Z,22.25
2018-12-01T18:15:11.308Z,24.05
2018-12-01T18:17:41.432Z,22.30
2018-12-01T18:20:18.240Z,26.37
2018-12-01T18:22:57.159Z,26.12
2018-12-01T18:25:33.416Z,29.92
2018-12-01T18:28:04.328Z,31.40
2018-12-01T18:30:40.916Z,30.70
2018-12-01T18:33:22.509Z,29.95
2018-12-01T18:35:54.348Z,31.52
2018-12-01T18:38:25.581Z,32.58
2018-12-01T18:40:56.196Z,34.50
2018-12-01T18:43:29.640Z,35.70
2018-12-01T18:46:02.024Z,39.33
2018-12-01T18:48:32.932Z,34.27
2018-12-01T18:51:07.384Z,34.50
2018-12-01T18:53:38.284Z,36.38
2018-12-01T18:56:09.156Z,37.80
2018-12-01T18:58:41.008Z,36.25
2018-12-01T19:01:11.580Z,35.55
2018-12-01T19:03:42.444Z,33.20
2018-12-01T19:06:12.360Z,34.38
2018-12-01T19:08:42.676Z,33.73
2018-12-01T19:11:12.591Z,35.65
2018-12-01T19:13:42.748Z,32.65
2018-12-01T19:16:12.692Z,33.88
2018-12-01T19:18:43.804Z,35.43
2018-12-01T19:21:14.641Z,34.23
2018-12-01T19:23:46.708Z,33.10
2018-12-01T19:26:18.592Z,33.20
2018-12-01T19:28:48.560Z,32.17
2018-12-01T19:31:19.421Z,33.33
2018-12-01T19:33:50.340Z,33.95
2018-12-01T19:36:20.273Z,32.80
2018-12-01T19:38:51.196Z,38.00
2018-12-01T19:41:22.052Z,35.80
2018-12-01T19:43:51.960Z,36.42
2018-12-01T19:46:22.036Z,37.45
2018-12-01T19:48:51.927Z,33.55
2018-12-01T19:51:23.054Z,33.05
2018-12-01T19:54:03.340Z,33.55
2018-12-01T19:56:35.103Z,35.73
2018-12-01T19:59:07.023Z,33.98
2018-12-01T20:01:37.944Z,34.60
2018-12-01T20:04:08.864Z,35.25
2018-12-01T20:06:39.804Z,35.30
2018-12-01T20:09:09.976Z,32.60
2018-12-01T20:11:39.840Z,37.10
2018-12-01T20:14:14.578Z,35.88
2018-12-01T20:16:48.273Z,37.10
2018-12-01T20:19:18.186Z,39.88
2018-12-01T20:21:48.120Z,37.23
2018-12-01T20:24:21.364Z,41.10
2018-12-01T20:27:01.864Z,39.65
2018-12-01T20:29:33.704Z,37.20
2018-12-01T20:32:04.650Z,37.75
2018-12-01T20:34:34.837Z,41.92
2018-12-01T20:37:13.700Z,34.50
2018-12-01T20:39:48.469Z,39.20
2018-12-01T20:42:18.565Z,31.17
2018-12-01T20:44:50.470Z,36.03
2018-12-01T20:47:22.340Z,36.00
2018-12-01T20:49:52.225Z,35.38
2018-12-01T20:52:23.112Z,41.25
2018-12-01T20:54:57.020Z,35.40
2018-12-01T20:57:30.716Z,37.20
2018-12-01T21:00:01.861Z,38.83
2018-12-01T21:02:33.304Z,36.65
2018-12-01T21:05:11.425Z,42.10
2018-12-01T21:07:45.640Z,36.33
2018-12-01T21:10:22.812Z,37.55
2018-12-01T21:12:59.893Z,39.23
2018-12-01T21:15:29.831Z,38.92
2018-12-01T21:17:59.704Z,39.23
2018-12-01T21:20:29.800Z,39.10
2018-12-01T21:23:00.037Z,37.53
2018-12-01T21:25:31.944Z,35.05
2018-12-01T21:28:02.716Z,38.75
2018-12-01T21:30:34.611Z,38.28
2018-12-01T21:33:11.944Z,38.75
2018-12-01T21:35:43.864Z,36.73
2018-12-01T21:38:17.964Z,39.08
2018-12-01T21:40:47.921Z,37.10
2018-12-01T21:43:19.760Z,39.40
2018-12-01T21:45:50.688Z,37.60
2018-12-01T21:48:26.102Z,38.85
2018-12-01T21:50:57.936Z,36.40
2018-12-01T21:53:27.772Z,36.28
2018-12-01T21:56:04.274Z,38.38
2018-12-01T21:58:38.124Z,36.25
2018-12-01T22:01:22.456Z,35.20
2018-12-01T22:03:53.330Z,39.48
2018-12-01T22:06:24.144Z,37.17
2018-12-01T22:08:53.997Z,34.48
2018-12-01T22:11:24.520Z,38.95
2018-12-01T22:13:54.460Z,36.98
2018-12-01T22:16:24.704Z,35.35
2018-12-01T22:18:54.984Z,38.67
2018-12-01T22:21:30.219Z,34.50
2018-12-01T22:24:01.150Z,39.10
2018-12-01T22:26:31.068Z,37.40
2018-12-01T22:29:02.216Z,36.85
2018-12-01T22:31:32.128Z,37.40
2018-12-01T22:34:02.048Z,36.03
2018-12-01T22:36:31.960Z,36.03
2018-12-01T22:39:02.852Z,36.58
2018-12-01T22:41:32.708Z,35.83
2018-12-01T22:44:07.228Z,35.58
2018-12-01T22:46:37.137Z,34.73
2018-12-01T22:49:07.152Z,36.70
2018-12-01T22:51:39.008Z,34.27
2018-12-01T22:54:08.885Z,37.33
2018-12-01T22:56:39.808Z,34.08
2018-12-01T22:59:09.701Z,32.15
2018-12-01T23:01:39.650Z,34.70
2018-12-01T23:04:09.505Z,31.10
2018-12-01T23:06:41.317Z,58.02
2018-12-01T23:09:11.300Z,84.70
2018-12-01T23:11:42.136Z,34.40
2018-12-01T23:14:14.008Z,34.18
2018-12-01T23:16:45.856Z,32.73
2018-12-01T23:19:16.756Z,35.95
2018-12-01T23:21:49.097Z,34.50
2018-12-01T23:24:21.924Z,35.17
2018-12-01T23:26:51.844Z,34.78
2018-12-01T23:29:21.716Z,33.48
2018-12-01T23:31:57.320Z,33.15
2018-12-01T23:34:28.237Z,34.45
2018-12-01T23:37:01.305Z,35.25
2018-12-01T23:39:31.184Z,34.83
2018-12-01T23:42:02.101Z,34.18
2018-12-01T23:44:31.944Z,38.53
2018-12-01T23:47:03.824Z,36.70
2018-12-01T23:49:34.713Z,35.63
2018-12-01T23:52:04.704Z,37.80
2018-12-01T23:54:39.328Z,35.73
2018-12-01T23:57:10.152Z,34.73
2018-12-01T23:59:42.044Z,35.95
